Time,TemperatureF,DewpointF,PressureIn,WindDirection,WindDirectionDegrees,WindSpeedMPH,WindSpeedGustMPH,Humidity,HourlyPrecipIn,Conditions,Clouds,dailyrainin,SoftwareType,DateUTC
2013-07-17 00:11:00,83.0,37.0,-100.00,NNW,339,12.0,16.0,19,-99.99,,,-99.99,,2013-07-17 07:11:00,
2013-07-17 01:01:00,82.0,41.0,-100.00,West,277,9.0,15.0,23,-99.99,,,-99.99,,2013-07-17 08:01:00,
2013-07-17 01:11:00,82.0,41.0,-100.00,West,277,9.0,15.0,23,-99.99,,,-99.99,,2013-07-17 08:11:00,
2013-07-17 02:02:00,79.0,41.0,-100.00,WNW,297,7.0,9.0,25,-99.99,,,-99.99,,2013-07-17 09:02:00,
2013-07-17 03:01:00,80.0,44.0,-100.00,WNW,282,10.0,15.0,27,-99.99,,,-99.99,,2013-07-17 10:01:00,
2013-07-17 03:11:00,80.0,44.0,-100.00,WNW,282,10.0,15.0,27,-99.99,,,-99.99,,2013-07-17 10:11:00,
2013-07-17 04:01:00,75.0,51.0,-100.00,WNW,286,14.0,20.0,42,-99.99,,,-99.99,,2013-07-17 11:01:00,
2013-07-17 04:11:00,75.0,51.0,-100.00,WNW,286,14.0,20.0,42,-99.99,,,-99.99,,2013-07-17 11:11:00,
2013-07-17 05:01:00,75.0,50.0,-100.00,WNW,299,12.0,15.0,41,-99.99,,,-99.99,,2013-07-17 12:01:00,
2013-07-17 05:12:00,75.0,50.0,-100.00,WNW,299,12.0,15.0,41,-99.99,,,-99.99,,2013-07-17 12:12:00,
2013-07-17 06:01:00,76.0,50.0,-100.00,West,273,10.0,15.0,40,-99.99,,,-99.99,,2013-07-17 13:01:00,
2013-07-17 06:12:00,76.0,50.0,-100.00,West,273,10.0,15.0,40,-99.99,,,-99.99,,2013-07-17 13:12:00,
2013-07-17 07:02:00,77.0,51.0,-100.00,WNW,303,12.0,17.0,40,-99.99,,,-99.99,,2013-07-17 14:02:00,
2013-07-17 07:11:00,77.0,51.0,-100.00,WNW,303,12.0,17.0,40,-99.99,,,-99.99,,2013-07-17 14:11:00,
2013-07-17 08:01:00,79.0,53.0,-100.00,NW,311,2.0,5.0,40,-99.99,,,-99.99,,2013-07-17 15:01:00,
2013-07-17 08:12:00,79.0,53.0,-100.00,NW,311,2.0,5.0,40,-99.99,,,-99.99,,2013-07-17 15:12:00,
2013-07-17 09:01:00,81.0,53.0,-100.00,NW,306,7.0,10.0,37,-99.99,,,-99.99,,2013-07-17 16:01:00,
2013-07-17 09:11:00,81.0,53.0,-100.00,NW,306,7.0,10.0,37,-99.99,,,-99.99,,2013-07-17 16:11:00,
2013-07-17 10:01:00,85.0,51.0,-100.00,NNW,341,7.0,15.0,30,-99.99,,,-99.99,,2013-07-17 17:01:00,
2013-07-17 10:11:00,85.0,51.0,-100.00,NNW,341,7.0,15.0,30,-99.99,,,-99.99,,2013-07-17 17:11:00,
2013-07-17 11:01:00,87.0,49.0,-100.00,ENE,68,6.0,12.0,26,-99.99,,,-99.99,,2013-07-17 18:01:00,
2013-07-17 11:11:00,87.0,49.0,-100.00,ENE,68,6.0,12.0,26,-99.99,,,-99.99,,2013-07-17 18:11:00,
2013-07-17 12:11:00,88.0,48.0,-100.00,ENE,61,7.0,13.0,25,-99.99,,,-99.99,,2013-07-17 19:11:00,
2013-07-17 13:01:00,90.0,48.0,-100.00,ENE,59,5.0,13.0,23,-99.99,,,-99.99,,2013-07-17 20:01:00,
2013-07-17 13:11:00,90.0,48.0,-100.00,ENE,59,5.0,13.0,23,-99.99,,,-99.99,,2013-07-17 20:11:00,
2013-07-17 14:01:00,93.0,48.0,-100.00,ESE,113,9.0,28.0,21,-99.99,,,-99.99,,2013-07-17 21:01:00,
2013-07-17 14:12:00,93.0,48.0,-100.00,ESE,113,9.0,28.0,21,-99.99,,,-99.99,,2013-07-17 21:12:00,
2013-07-17 15:01:00,95.0,50.0,-100.00,SSE,157,10.0,18.0,21,-99.99,,,-99.99,,2013-07-17 22:01:00,
2013-07-17 15:11:00,95.0,50.0,-100.00,SSE,157,10.0,18.0,21,-99.99,,,-99.99,,2013-07-17 22:11:00,
2013-07-17 16:01:00,94.0,49.0,-100.00,ESE,108,12.0,21.0,21,-99.99,,,-99.99,,2013-07-17 23:01:00,
2013-07-17 16:11:00,94.0,49.0,-100.00,ESE,108,12.0,21.0,21,-99.99,,,-99.99,,2013-07-17 23:11:00,
2013-07-17 17:11:00,96.0,48.0,-100.00,East,96,12.0,20.0,19,-99.99,,,-99.99,,2013-07-18 00:11:00,
2013-07-17 19:01:00,98.0,40.0,-100.00,SW,226,5.0,10.0,13,-99.99,,,-99.99,,2013-07-18 02:01:00,
2013-07-17 19:11:00,98.0,40.0,-100.00,SW,226,5.0,10.0,13,-99.99,,,-99.99,,2013-07-18 02:11:00,
2013-07-17 20:01:00,97.0,39.0,-100.00,West,260,13.0,20.0,13,-99.99,,,-99.99,,2013-07-18 03:01:00,
2013-07-17 20:11:00,97.0,39.0,-100.00,West,260,13.0,20.0,13,-99.99,,,-99.99,,2013-07-18 03:11:00,
2013-07-17 21:02:00,94.0,36.0,-100.00,WSW,251,12.0,16.0,13,-99.99,,,-99.99,,2013-07-18 04:02:00,
2013-07-17 22:01:00,86.0,36.0,-100.00,West,264,9.0,12.0,16,-99.99,,,-99.99,,2013-07-18 05:01:00,
2013-07-17 22:11:00,86.0,36.0,-100.00,West,264,9.0,12.0,16,-99.99,,,-99.99,,2013-07-18 05:11:00,
2013-07-17 23:01:00,81.0,44.0,-100.00,WNW,296,12.0,17.0,27,-99.99,,,-99.99,,2013-07-18 06:01:00,
2013-07-17 23:11:00,81.0,44.0,-100.00,WNW,296,12.0,17.0,27,-99.99,,,-99.99,,2013-07-18 06:11:00,